sensor_id;sensor_type;location;lat;lon;timestamp;temperature;humidity
44229;DHT22;29904;51.058;5.378;2022-12-07T00:01:28;5.50;99.90
44229;DHT22;29904;51.058;5.378;2022-12-07T00:03:55;5.50;99.90
44229;DHT22;29904;51.058;5.378;2022-12-07T00:06:32;5.50;99.90
44229;DHT22;29904;51.058;5.378;2022-12-07T00:08:58;5.50;99.90
44229;DHT22;29904;51.058;5.378;2022-12-07T00:11:24;5.40;99.90
44229;DHT22;29904;51.058;5.378;2022-12-07T00:13:56;5.40;99.90
44229;DHT22;29904;51.058;5.378;2022-12-07T00:16:24;5.40;99.90
44229;DHT22;29904;51.058;5.378;2022-12-07T00:18:50;5.30;99.90
44229;DHT22;29904;51.058;5.378;2022-12-07T00:23:44;5.30;99.90
44229;DHT22;29904;51.058;5.378;2022-12-07T00:26:19;5.20;99.90
44229;DHT22;29904;51.058;5.378;2022-12-07T00:28:48;5.20;99.90
44229;DHT22;29904;51.058;5.378;2022-12-07T00:31:15;5.20;99.90
44229;DHT22;29904;51.058;5.378;2022-12-07T00:33:41;5.20;99.90
44229;DHT22;29904;51.058;5.378;2022-12-07T00:36:10;5.30;99.90
44229;DHT22;29904;51.058;5.378;2022-12-07T00:38:38;5.30;99.90
44229;DHT22;29904;51.058;5.378;2022-12-07T00:41:11;5.20;99.90
44229;DHT22;29904;51.058;5.378;2022-12-07T00:43:38;5.20;99.90
44229;DHT22;29904;51.058;5.378;2022-12-07T00:46:04;5.20;99.90
44229;DHT22;29904;51.058;5.378;2022-12-07T00:48:32;5.20;99.90
44229;DHT22;29904;51.058;5.378;2022-12-07T00:50:59;5.20;99.90
44229;DHT22;29904;51.058;5.378;2022-12-07T00:53:25;5.20;99.90
44229;DHT22;29904;51.058;5.378;2022-12-07T00:55:52;5.10;99.90
44229;DHT22;29904;51.058;5.378;2022-12-07T00:58:19;5.10;99.90
44229;DHT22;29904;51.058;5.378;2022-12-07T01:00:45;5.10;99.90
44229;DHT22;29904;51.058;5.378;2022-12-07T01:03:12;5.10;99.90
44229;DHT22;29904;51.058;5.378;2022-12-07T01:05:38;5.10;99.90
44229;DHT22;29904;51.058;5.378;2022-12-07T01:08:04;5.10;99.90
44229;DHT22;29904;51.058;5.378;2022-12-07T01:10:30;5.10;99.90
44229;DHT22;29904;51.058;5.378;2022-12-07T01:12:57;5.20;99.90
44229;DHT22;29904;51.058;5.378;2022-12-07T01:15:24;5.20;99.90
44229;DHT22;29904;51.058;5.378;2022-12-07T01:17:50;5.20;99.90
44229;DHT22;29904;51.058;5.378;2022-12-07T01:20:16;5.20;99.90
44229;DHT22;29904;51.058;5.378;2022-12-07T01:22:43;5.20;99.90
44229;DHT22;29904;51.058;5.378;2022-12-07T01:25:11;5.20;99.90
44229;DHT22;29904;51.058;5.378;2022-12-07T01:27:37;5.20;99.90
44229;DHT22;29904;51.058;5.378;2022-12-07T01:30:05;5.20;99.90
44229;DHT22;29904;51.058;5.378;2022-12-07T01:32:33;5.20;99.90
44229;DHT22;29904;51.058;5.378;2022-12-07T01:34:59;5.20;99.90
44229;DHT22;29904;51.058;5.378;2022-12-07T01:37:25;5.20;99.90
44229;DHT22;29904;51.058;5.378;2022-12-07T01:39:53;5.20;99.90
44229;DHT22;29904;51.058;5.378;2022-12-07T01:42:19;5.20;99.90
44229;DHT22;29904;51.058;5.378;2022-12-07T01:47:55;5.30;99.90
44229;DHT22;29904;51.058;5.378;2022-12-07T01:50:25;5.30;99.90
44229;DHT22;29904;51.058;5.378;2022-12-07T01:52:54;5.30;99.90
44229;DHT22;29904;51.058;5.378;2022-12-07T01:55:23;5.30;99.90
44229;DHT22;29904;51.058;5.378;2022-12-07T01:57:51;5.20;99.90
44229;DHT22;29904;51.058;5.378;2022-12-07T02:00:17;5.10;99.90
44229;DHT22;29904;51.058;5.378;2022-12-07T02:02:57;5.00;99.90
44229;DHT22;29904;51.058;5.378;2022-12-07T02:05:26;5.00;99.90
44229;DHT22;29904;51.058;5.378;2022-12-07T02:07:54;5.00;99.90
44229;DHT22;29904;51.058;5.378;2022-12-07T02:10:24;5.00;99.90
44229;DHT22;29904;51.058;5.378;2022-12-07T02:12:56;5.10;99.90
44229;DHT22;29904;51.058;5.378;2022-12-07T02:15:38;5.10;99.90
44229;DHT22;29904;51.058;5.378;2022-12-07T02:18:12;5.10;99.90
44229;DHT22;29904;51.058;5.378;2022-12-07T02:21:07;5.10;99.90
44229;DHT22;29904;51.058;5.378;2022-12-07T02:29:20;5.10;99.90
44229;DHT22;29904;51.058;5.378;2022-12-07T02:37:01;5.10;99.90
44229;DHT22;29904;51.058;5.378;2022-12-07T02:39:37;5.10;99.90
44229;DHT22;29904;51.058;5.378;2022-12-07T02:42:14;5.10;99.90
44229;DHT22;29904;51.058;5.378;2022-12-07T02:44:41;5.10;99.90
44229;DHT22;29904;51.058;5.378;2022-12-07T02:47:10;5.10;99.90
44229;DHT22;29904;51.058;5.378;2022-12-07T02:49:38;5.20;99.90
44229;DHT22;29904;51.058;5.378;2022-12-07T02:52:05;5.30;99.90
44229;DHT22;29904;51.058;5.378;2022-12-07T02:54:31;5.40;99.90
44229;DHT22;29904;51.058;5.378;2022-12-07T03:00:03;5.30;99.90
44229;DHT22;29904;51.058;5.378;2022-12-07T03:07:51;5.30;99.90
44229;DHT22;29904;51.058;5.378;2022-12-07T03:10:43;5.30;99.90
44229;DHT22;29904;51.058;5.378;2022-12-07T03:13:16;5.30;99.90
44229;DHT22;29904;51.058;5.378;2022-12-07T03:18:46;5.30;99.90
44229;DHT22;29904;51.058;5.378;2022-12-07T03:21:16;5.30;99.90
44229;DHT22;29904;51.058;5.378;2022-12-07T03:23:46;5.40;99.90
44229;DHT22;29904;51.058;5.378;2022-12-07T03:26:15;5.40;99.90
44229;DHT22;29904;51.058;5.378;2022-12-07T03:28:47;5.40;99.90
44229;DHT22;29904;51.058;5.378;2022-12-07T03:31:21;5.40;99.90
44229;DHT22;29904;51.058;5.378;2022-12-07T03:36:40;5.50;99.90
44229;DHT22;29904;51.058;5.378;2022-12-07T03:39:20;5.50;99.90
44229;DHT22;29904;51.058;5.378;2022-12-07T03:41:50;5.50;99.90
44229;DHT22;29904;51.058;5.378;2022-12-07T03:44:16;5.50;99.90
44229;DHT22;29904;51.058;5.378;2022-12-07T03:47:03;5.50;99.90
44229;DHT22;29904;51.058;5.378;2022-12-07T03:49:42;5.50;99.90
44229;DHT22;29904;51.058;5.378;2022-12-07T03:57:19;5.30;99.90
44229;DHT22;29904;51.058;5.378;2022-12-07T03:59:46;5.20;99.90
44229;DHT22;29904;51.058;5.378;2022-12-07T04:02:13;5.20;99.90
44229;DHT22;29904;51.058;5.378;2022-12-07T04:04:39;5.10;99.90
44229;DHT22;29904;51.058;5.378;2022-12-07T04:07:05;5.10;99.90
44229;DHT22;29904;51.058;5.378;2022-12-07T04:09:32;5.10;99.90
44229;DHT22;29904;51.058;5.378;2022-12-07T04:11:58;5.10;99.90
44229;DHT22;29904;51.058;5.378;2022-12-07T04:14:24;5.10;99.90
44229;DHT22;29904;51.058;5.378;2022-12-07T04:16:51;5.10;99.90
44229;DHT22;29904;51.058;5.378;2022-12-07T04:19:19;5.00;99.90
44229;DHT22;29904;51.058;5.378;2022-12-07T04:21:46;5.00;99.90
44229;DHT22;29904;51.058;5.378;2022-12-07T04:24:14;5.00;99.90
44229;DHT22;29904;51.058;5.378;2022-12-07T04:26:41;5.10;99.90
44229;DHT22;29904;51.058;5.378;2022-12-07T04:29:07;5.00;99.90
44229;DHT22;29904;51.058;5.378;2022-12-07T04:31:36;5.10;99.90
44229;DHT22;29904;51.058;5.378;2022-12-07T04:34:02;5.10;99.90
44229;DHT22;29904;51.058;5.378;2022-12-07T04:36:28;5.00;99.90
44229;DHT22;29904;51.058;5.378;2022-12-07T04:38:54;5.00;99.90
44229;DHT22;29904;51.058;5.378;2022-12-07T04:41:23;4.90;99.90
44229;DHT22;29904;51.058;5.378;2022-12-07T04:43:56;4.80;99.90
44229;DHT22;29904;51.058;5.378;2022-12-07T04:46:24;4.80;99.90
44229;DHT22;29904;51.058;5.378;2022-12-07T04:48:50;4.70;99.90
44229;DHT22;29904;51.058;5.378;2022-12-07T04:51:20;4.70;99.90
44229;DHT22;29904;51.058;5.378;2022-12-07T04:53:46;4.60;99.90
44229;DHT22;29904;51.058;5.378;2022-12-07T04:56:12;4.60;99.90
44229;DHT22;29904;51.058;5.378;2022-12-07T04:58:38;4.50;99.90
44229;DHT22;29904;51.058;5.378;2022-12-07T05:01:04;4.60;99.90
44229;DHT22;29904;51.058;5.378;2022-12-07T05:03:30;4.60;99.90
44229;DHT22;29904;51.058;5.378;2022-12-07T05:05:57;4.60;99.90
44229;DHT22;29904;51.058;5.378;2022-12-07T05:08:23;4.70;99.90
44229;DHT22;29904;51.058;5.378;2022-12-07T05:10:49;4.70;99.90
44229;DHT22;29904;51.058;5.378;2022-12-07T05:13:15;4.60;99.90
44229;DHT22;29904;51.058;5.378;2022-12-07T05:15:41;4.70;99.90
44229;DHT22;29904;51.058;5.378;2022-12-07T05:18:10;4.70;99.90
44229;DHT22;29904;51.058;5.378;2022-12-07T05:20:40;4.70;99.90
44229;DHT22;29904;51.058;5.378;2022-12-07T05:23:05;4.70;99.90
44229;DHT22;29904;51.058;5.378;2022-12-07T05:25:31;4.70;99.90
44229;DHT22;29904;51.058;5.378;2022-12-07T05:27:59;4.70;99.90
44229;DHT22;29904;51.058;5.378;2022-12-07T05:30:26;4.70;99.90
44229;DHT22;29904;51.058;5.378;2022-12-07T05:32:52;4.60;99.90
44229;DHT22;29904;51.058;5.378;2022-12-07T05:35:20;4.60;99.90
44229;DHT22;29904;51.058;5.378;2022-12-07T05:37:45;4.70;99.90
44229;DHT22;29904;51.058;5.378;2022-12-07T05:40:12;4.70;99.90
44229;DHT22;29904;51.058;5.378;2022-12-07T05:42:39;4.70;99.90
44229;DHT22;29904;51.058;5.378;2022-12-07T05:45:05;4.70;99.90
44229;DHT22;29904;51.058;5.378;2022-12-07T05:47:32;4.70;99.90
44229;DHT22;29904;51.058;5.378;2022-12-07T05:49:59;4.70;99.90
44229;DHT22;29904;51.058;5.378;2022-12-07T05:52:27;4.70;99.90
44229;DHT22;29904;51.058;5.378;2022-12-07T05:54:52;4.70;99.90
44229;DHT22;29904;51.058;5.378;2022-12-07T05:57:20;4.70;99.90
44229;DHT22;29904;51.058;5.378;2022-12-07T05:59:46;4.80;99.90
44229;DHT22;29904;51.058;5.378;2022-12-07T06:02:14;4.80;99.90
44229;DHT22;29904;51.058;5.378;2022-12-07T06:04:43;4.80;99.90
44229;DHT22;29904;51.058;5.378;2022-12-07T06:07:09;4.80;99.90
44229;DHT22;29904;51.058;5.378;2022-12-07T06:09:35;4.80;99.90
44229;DHT22;29904;51.058;5.378;2022-12-07T06:12:03;4.90;99.90
44229;DHT22;29904;51.058;5.378;2022-12-07T06:14:48;4.90;99.90
44229;DHT22;29904;51.058;5.378;2022-12-07T06:17:15;4.90;99.90
44229;DHT22;29904;51.058;5.378;2022-12-07T06:19:41;4.90;99.90
44229;DHT22;29904;51.058;5.378;2022-12-07T06:22:10;5.00;99.90
44229;DHT22;29904;51.058;5.378;2022-12-07T06:24:37;5.00;99.90
44229;DHT22;29904;51.058;5.378;2022-12-07T06:27:03;4.90;99.90
44229;DHT22;29904;51.058;5.378;2022-12-07T06:29:29;4.90;99.90
44229;DHT22;29904;51.058;5.378;2022-12-07T06:31:57;4.90;99.90
44229;DHT22;29904;51.058;5.378;2022-12-07T06:34:24;4.80;99.90
44229;DHT22;29904;51.058;5.378;2022-12-07T06:36:50;4.80;99.90
44229;DHT22;29904;51.058;5.378;2022-12-07T06:39:19;4.80;99.90
44229;DHT22;29904;51.058;5.378;2022-12-07T06:41:45;4.70;99.90
44229;DHT22;29904;51.058;5.378;2022-12-07T06:44:11;4.70;99.90
44229;DHT22;29904;51.058;5.378;2022-12-07T06:46:37;4.70;99.90
44229;DHT22;29904;51.058;5.378;2022-12-07T06:49:04;4.60;99.90
44229;DHT22;29904;51.058;5.378;2022-12-07T06:51:30;4.60;99.90
44229;DHT22;29904;51.058;5.378;2022-12-07T06:53:58;4.60;99.90
44229;DHT22;29904;51.058;5.378;2022-12-07T06:56:26;4.60;99.90
44229;DHT22;29904;51.058;5.378;2022-12-07T06:58:52;4.50;99.90
44229;DHT22;29904;51.058;5.378;2022-12-07T07:01:18;4.50;99.90
44229;DHT22;29904;51.058;5.378;2022-12-07T07:03:45;4.50;99.90
44229;DHT22;29904;51.058;5.378;2022-12-07T07:06:11;4.40;99.90
44229;DHT22;29904;51.058;5.378;2022-12-07T07:08:37;4.40;99.90
44229;DHT22;29904;51.058;5.378;2022-12-07T07:11:06;4.40;99.90
44229;DHT22;29904;51.058;5.378;2022-12-07T07:13:32;4.40;99.90
44229;DHT22;29904;51.058;5.378;2022-12-07T07:15:58;4.40;99.90
44229;DHT22;29904;51.058;5.378;2022-12-07T07:18:24;4.50;99.90
44229;DHT22;29904;51.058;5.378;2022-12-07T07:20:51;4.40;99.90
44229;DHT22;29904;51.058;5.378;2022-12-07T07:23:17;4.40;99.90
44229;DHT22;29904;51.058;5.378;2022-12-07T07:25:45;4.40;99.90
44229;DHT22;29904;51.058;5.378;2022-12-07T07:28:11;4.40;99.90
44229;DHT22;29904;51.058;5.378;2022-12-07T07:30:37;4.30;99.90
44229;DHT22;29904;51.058;5.378;2022-12-07T07:33:05;4.30;99.90
44229;DHT22;29904;51.058;5.378;2022-12-07T07:35:32;4.30;99.90
44229;DHT22;29904;51.058;5.378;2022-12-07T07:37:59;4.30;99.90
44229;DHT22;29904;51.058;5.378;2022-12-07T07:40:25;4.30;99.90
44229;DHT22;29904;51.058;5.378;2022-12-07T07:42:52;4.30;99.90
44229;DHT22;29904;51.058;5.378;2022-12-07T07:45:20;4.30;99.90
44229;DHT22;29904;51.058;5.378;2022-12-07T07:47:48;4.40;99.90
44229;DHT22;29904;51.058;5.378;2022-12-07T07:50:14;4.30;99.90
44229;DHT22;29904;51.058;5.378;2022-12-07T07:52:41;4.30;99.90
44229;DHT22;29904;51.058;5.378;2022-12-07T07:55:07;4.30;99.90
44229;DHT22;29904;51.058;5.378;2022-12-07T07:57:37;4.30;99.90
44229;DHT22;29904;51.058;5.378;2022-12-07T08:00:13;4.30;99.90
44229;DHT22;29904;51.058;5.378;2022-12-07T08:02:42;4.40;99.90
44229;DHT22;29904;51.058;5.378;2022-12-07T08:05:09;4.40;99.90
44229;DHT22;29904;51.058;5.378;2022-12-07T08:07:34;4.50;99.90
44229;DHT22;29904;51.058;5.378;2022-12-07T08:10:00;4.50;99.90
44229;DHT22;29904;51.058;5.378;2022-12-07T08:12:26;4.60;99.90
44229;DHT22;29904;51.058;5.378;2022-12-07T08:14:52;4.60;99.90
44229;DHT22;29904;51.058;5.378;2022-12-07T08:17:20;4.60;99.90
44229;DHT22;29904;51.058;5.378;2022-12-07T08:19:45;4.60;99.90
44229;DHT22;29904;51.058;5.378;2022-12-07T08:22:11;4.60;99.90
44229;DHT22;29904;51.058;5.378;2022-12-07T08:24:37;4.60;99.90
44229;DHT22;29904;51.058;5.378;2022-12-07T08:27:03;4.60;99.90
44229;DHT22;29904;51.058;5.378;2022-12-07T08:29:29;4.50;99.90
44229;DHT22;29904;51.058;5.378;2022-12-07T08:31:55;4.50;99.90
44229;DHT22;29904;51.058;5.378;2022-12-07T08:34:21;4.60;99.90
44229;DHT22;29904;51.058;5.378;2022-12-07T08:36:48;4.60;99.90
44229;DHT22;29904;51.058;5.378;2022-12-07T08:39:14;4.80;99.90
44229;DHT22;29904;51.058;5.378;2022-12-07T08:41:39;4.80;99.90
44229;DHT22;29904;51.058;5.378;2022-12-07T08:44:09;4.90;99.90
44229;DHT22;29904;51.058;5.378;2022-12-07T08:46:42;4.90;99.90
44229;DHT22;29904;51.058;5.378;2022-12-07T08:49:13;4.90;99.90
44229;DHT22;29904;51.058;5.378;2022-12-07T08:51:41;4.90;99.90
44229;DHT22;29904;51.058;5.378;2022-12-07T08:54:11;4.90;99.90
44229;DHT22;29904;51.058;5.378;2022-12-07T08:56:38;5.00;99.90
44229;DHT22;29904;51.058;5.378;2022-12-07T08:59:05;5.00;99.90
44229;DHT22;29904;51.058;5.378;2022-12-07T09:01:32;5.00;99.90
44229;DHT22;29904;51.058;5.378;2022-12-07T09:03:58;5.10;99.90
44229;DHT22;29904;51.058;5.378;2022-12-07T09:06:24;5.10;99.90
44229;DHT22;29904;51.058;5.378;2022-12-07T09:08:54;5.20;99.90
44229;DHT22;29904;51.058;5.378;2022-12-07T09:11:20;5.20;99.90
44229;DHT22;29904;51.058;5.378;2022-12-07T09:13:46;5.20;99.90
44229;DHT22;29904;51.058;5.378;2022-12-07T09:16:11;5.20;99.90
44229;DHT22;29904;51.058;5.378;2022-12-07T09:18:39;5.20;99.90
44229;DHT22;29904;51.058;5.378;2022-12-07T09:21:05;5.20;99.90
44229;DHT22;29904;51.058;5.378;2022-12-07T09:23:31;5.30;99.90
44229;DHT22;29904;51.058;5.378;2022-12-07T09:26:01;5.30;99.90
44229;DHT22;29904;51.058;5.378;2022-12-07T09:28:27;5.30;99.90
44229;DHT22;29904;51.058;5.378;2022-12-07T09:30:52;5.30;99.90
44229;DHT22;29904;51.058;5.378;2022-12-07T09:33:18;5.40;99.90
44229;DHT22;29904;51.058;5.378;2022-12-07T09:35:48;5.40;99.90
44229;DHT22;29904;51.058;5.378;2022-12-07T09:38:15;5.50;99.90
44229;DHT22;29904;51.058;5.378;2022-12-07T09:40:41;5.60;99.90
44229;DHT22;29904;51.058;5.378;2022-12-07T09:43:22;5.70;99.90
44229;DHT22;29904;51.058;5.378;2022-12-07T09:45:52;5.70;99.90
44229;DHT22;29904;51.058;5.378;2022-12-07T09:48:29;5.80;99.90
44229;DHT22;29904;51.058;5.378;2022-12-07T09:50:58;6.00;99.90
44229;DHT22;29904;51.058;5.378;2022-12-07T09:53:32;6.10;99.90
44229;DHT22;29904;51.058;5.378;2022-12-07T09:55:59;6.10;99.90
44229;DHT22;29904;51.058;5.378;2022-12-07T09:58:27;6.20;99.90
44229;DHT22;29904;51.058;5.378;2022-12-07T10:01:05;6.30;99.90
44229;DHT22;29904;51.058;5.378;2022-12-07T10:03:37;6.40;99.90
44229;DHT22;29904;51.058;5.378;2022-12-07T10:06:06;6.40;99.90
44229;DHT22;29904;51.058;5.378;2022-12-07T10:08:32;6.50;99.90
44229;DHT22;29904;51.058;5.378;2022-12-07T10:10:59;6.60;99.90
44229;DHT22;29904;51.058;5.378;2022-12-07T10:13:40;6.80;99.90
44229;DHT22;29904;51.058;5.378;2022-12-07T10:16:31;6.80;99.90
44229;DHT22;29904;51.058;5.378;2022-12-07T10:19:34;6.90;99.90
44229;DHT22;29904;51.058;5.378;2022-12-07T10:22:13;6.80;99.90
44229;DHT22;29904;51.058;5.378;2022-12-07T10:24:41;6.70;99.90
44229;DHT22;29904;51.058;5.378;2022-12-07T10:27:34;6.50;99.90
44229;DHT22;29904;51.058;5.378;2022-12-07T10:30:02;6.30;99.90
44229;DHT22;29904;51.058;5.378;2022-12-07T10:32:34;6.20;99.90
44229;DHT22;29904;51.058;5.378;2022-12-07T10:35:30;6.10;99.90
44229;DHT22;29904;51.058;5.378;2022-12-07T10:37:58;6.10;99.90
44229;DHT22;29904;51.058;5.378;2022-12-07T10:40:28;6.10;99.90
44229;DHT22;29904;51.058;5.378;2022-12-07T11:00:48;6.10;99.90
44229;DHT22;29904;51.058;5.378;2022-12-07T11:03:18;6.20;99.90
44229;DHT22;29904;51.058;5.378;2022-12-07T11:06:14;6.20;99.90
44229;DHT22;29904;51.058;5.378;2022-12-07T11:11:24;6.40;99.90
44229;DHT22;29904;51.058;5.378;2022-12-07T11:14:03;6.50;99.90
44229;DHT22;29904;51.058;5.378;2022-12-07T11:19:15;6.60;99.90
44229;DHT22;29904;51.058;5.378;2022-12-07T11:21:58;6.70;99.90
44229;DHT22;29904;51.058;5.378;2022-12-07T11:37:59;6.80;99.90
44229;DHT22;29904;51.058;5.378;2022-12-07T11:40:30;6.80;99.90
44229;DHT22;29904;51.058;5.378;2022-12-07T11:45:42;6.90;99.90
44229;DHT22;29904;51.058;5.378;2022-12-07T11:48:22;7.00;99.90
44229;DHT22;29904;51.058;5.378;2022-12-07T11:50:54;7.10;99.90
44229;DHT22;29904;51.058;5.378;2022-12-07T11:56:09;7.20;99.90
44229;DHT22;29904;51.058;5.378;2022-12-07T12:06:36;7.60;99.90
44229;DHT22;29904;51.058;5.378;2022-12-07T12:09:17;7.70;99.90
44229;DHT22;29904;51.058;5.378;2022-12-07T12:23:11;7.80;99.90
44229;DHT22;29904;51.058;5.378;2022-12-07T12:25:41;7.80;99.90
44229;DHT22;29904;51.058;5.378;2022-12-07T12:31:14;7.90;99.90
44229;DHT22;29904;51.058;5.378;2022-12-07T12:33:51;7.90;99.90
44229;DHT22;29904;51.058;5.378;2022-12-07T12:51:50;7.70;99.90
44229;DHT22;29904;51.058;5.378;2022-12-07T12:59:41;7.60;99.90
44229;DHT22;29904;51.058;5.378;2022-12-07T13:07:52;7.50;99.90
44229;DHT22;29904;51.058;5.378;2022-12-07T13:26:27;7.30;99.90
44229;DHT22;29904;51.058;5.378;2022-12-07T13:34:03;7.20;99.90
44229;DHT22;29904;51.058;5.378;2022-12-07T13:36:37;7.10;99.90
44229;DHT22;29904;51.058;5.378;2022-12-07T13:39:19;7.10;99.90
44229;DHT22;29904;51.058;5.378;2022-12-07T13:41:49;6.90;99.90
44229;DHT22;29904;51.058;5.378;2022-12-07T13:44:17;6.90;99.90
44229;DHT22;29904;51.058;5.378;2022-12-07T13:49:29;6.90;99.90
44229;DHT22;29904;51.058;5.378;2022-12-07T13:52:08;7.00;99.90
44229;DHT22;29904;51.058;5.378;2022-12-07T13:54:45;7.10;99.90
44229;DHT22;29904;51.058;5.378;2022-12-07T13:57:11;7.10;99.90
44229;DHT22;29904;51.058;5.378;2022-12-07T13:59:37;7.10;99.90
44229;DHT22;29904;51.058;5.378;2022-12-07T14:02:18;7.10;99.90
44229;DHT22;29904;51.058;5.378;2022-12-07T14:04:45;7.20;99.90
44229;DHT22;29904;51.058;5.378;2022-12-07T14:10:04;7.10;99.90
44229;DHT22;29904;51.058;5.378;2022-12-07T14:12:35;7.00;99.90
44229;DHT22;29904;51.058;5.378;2022-12-07T14:15:02;6.90;99.90
44229;DHT22;29904;51.058;5.378;2022-12-07T14:17:28;6.80;99.90
44229;DHT22;29904;51.058;5.378;2022-12-07T14:24:51;6.60;99.90
44229;DHT22;29904;51.058;5.378;2022-12-07T14:27:22;6.60;99.90
44229;DHT22;29904;51.058;5.378;2022-12-07T14:29:50;6.50;99.90
44229;DHT22;29904;51.058;5.378;2022-12-07T14:32:24;6.50;99.90
44229;DHT22;29904;51.058;5.378;2022-12-07T14:34:57;6.40;99.90
44229;DHT22;29904;51.058;5.378;2022-12-07T14:37:24;6.40;99.90
44229;DHT22;29904;51.058;5.378;2022-12-07T14:39:52;6.40;99.90
44229;DHT22;29904;51.058;5.378;2022-12-07T14:42:17;6.40;99.90
44229;DHT22;29904;51.058;5.378;2022-12-07T14:44:44;6.30;99.90
44229;DHT22;29904;51.058;5.378;2022-12-07T14:47:10;6.30;99.90
44229;DHT22;29904;51.058;5.378;2022-12-07T14:49:36;6.30;99.90
44229;DHT22;29904;51.058;5.378;2022-12-07T14:52:25;6.30;99.90
44229;DHT22;29904;51.058;5.378;2022-12-07T14:54:52;6.30;99.90
44229;DHT22;29904;51.058;5.378;2022-12-07T14:57:18;6.30;99.90
44229;DHT22;29904;51.058;5.378;2022-12-07T14:59:44;6.20;99.90
44229;DHT22;29904;51.058;5.378;2022-12-07T15:02:12;6.30;99.90
44229;DHT22;29904;51.058;5.378;2022-12-07T15:04:38;6.20;99.90
44229;DHT22;29904;51.058;5.378;2022-12-07T15:07:05;6.30;99.90
44229;DHT22;29904;51.058;5.378;2022-12-07T15:09:31;6.20;99.90
44229;DHT22;29904;51.058;5.378;2022-12-07T15:11:57;6.30;99.90
44229;DHT22;29904;51.058;5.378;2022-12-07T15:14:23;6.20;99.90
44229;DHT22;29904;51.058;5.378;2022-12-07T15:16:48;6.10;99.90
44229;DHT22;29904;51.058;5.378;2022-12-07T15:19:22;6.10;99.90
44229;DHT22;29904;51.058;5.378;2022-12-07T15:21:51;6.10;99.90
44229;DHT22;29904;51.058;5.378;2022-12-07T15:24:17;6.10;99.90
44229;DHT22;29904;51.058;5.378;2022-12-07T15:26:45;6.10;99.90
44229;DHT22;29904;51.058;5.378;2022-12-07T15:29:12;6.10;99.90
44229;DHT22;29904;51.058;5.378;2022-12-07T15:31:42;6.10;99.90
44229;DHT22;29904;51.058;5.378;2022-12-07T15:34:09;6.10;99.90
44229;DHT22;29904;51.058;5.378;2022-12-07T15:36:37;6.00;99.90
44229;DHT22;29904;51.058;5.378;2022-12-07T15:39:04;6.00;99.90
44229;DHT22;29904;51.058;5.378;2022-12-07T15:41:31;5.90;99.90
44229;DHT22;29904;51.058;5.378;2022-12-07T15:44:01;5.90;99.90
44229;DHT22;29904;51.058;5.378;2022-12-07T15:46:46;5.90;99.90
44229;DHT22;29904;51.058;5.378;2022-12-07T15:49:15;5.80;99.90
44229;DHT22;29904;51.058;5.378;2022-12-07T15:51:43;5.70;99.90
44229;DHT22;29904;51.058;5.378;2022-12-07T15:54:24;5.70;99.90
44229;DHT22;29904;51.058;5.378;2022-12-07T15:56:51;5.70;99.90
44229;DHT22;29904;51.058;5.378;2022-12-07T15:59:17;6.20;99.90
44229;DHT22;29904;51.058;5.378;2022-12-07T16:01:45;5.50;99.90
44229;DHT22;29904;51.058;5.378;2022-12-07T16:04:11;5.60;99.90
44229;DHT22;29904;51.058;5.378;2022-12-07T16:06:37;5.50;99.90
44229;DHT22;29904;51.058;5.378;2022-12-07T16:09:05;5.40;99.90
44229;DHT22;29904;51.058;5.378;2022-12-07T16:11:31;5.40;99.90
44229;DHT22;29904;51.058;5.378;2022-12-07T16:13:57;5.40;99.90
44229;DHT22;29904;51.058;5.378;2022-12-07T16:16:22;5.40;99.90
44229;DHT22;29904;51.058;5.378;2022-12-07T16:18:50;5.40;99.90
44229;DHT22;29904;51.058;5.378;2022-12-07T16:21:16;5.40;99.90
44229;DHT22;29904;51.058;5.378;2022-12-07T16:23:45;5.40;99.90
44229;DHT22;29904;51.058;5.378;2022-12-07T16:26:16;5.30;99.90
44229;DHT22;29904;51.058;5.378;2022-12-07T16:28:42;5.30;99.90
44229;DHT22;29904;51.058;5.378;2022-12-07T16:31:12;5.20;99.90
44229;DHT22;29904;51.058;5.378;2022-12-07T16:33:39;5.20;99.90
44229;DHT22;29904;51.058;5.378;2022-12-07T16:36:07;5.20;99.90
44229;DHT22;29904;51.058;5.378;2022-12-07T16:38:34;5.20;99.90
44229;DHT22;29904;51.058;5.378;2022-12-07T16:41:00;5.10;99.90
44229;DHT22;29904;51.058;5.378;2022-12-07T16:43:26;5.10;99.90
44229;DHT22;29904;51.058;5.378;2022-12-07T16:45:54;5.10;99.90
44229;DHT22;29904;51.058;5.378;2022-12-07T16:48:19;5.10;99.90
44229;DHT22;29904;51.058;5.378;2022-12-07T16:50:46;5.10;99.90
44229;DHT22;29904;51.058;5.378;2022-12-07T16:53:13;5.10;99.90
44229;DHT22;29904;51.058;5.378;2022-12-07T16:55:41;5.10;99.90
44229;DHT22;29904;51.058;5.378;2022-12-07T16:58:08;5.20;99.90
44229;DHT22;29904;51.058;5.378;2022-12-07T17:00:35;5.20;99.90
44229;DHT22;29904;51.058;5.378;2022-12-07T17:03:02;5.30;99.90
44229;DHT22;29904;51.058;5.378;2022-12-07T17:05:28;5.30;99.90
44229;DHT22;29904;51.058;5.378;2022-12-07T17:07:55;5.40;99.90
44229;DHT22;29904;51.058;5.378;2022-12-07T17:10:21;5.30;99.90
44229;DHT22;29904;51.058;5.378;2022-12-07T17:12:47;5.30;99.90
44229;DHT22;29904;51.058;5.378;2022-12-07T17:15:14;5.20;99.90
44229;DHT22;29904;51.058;5.378;2022-12-07T17:17:53;5.10;99.90
44229;DHT22;29904;51.058;5.378;2022-12-07T17:20:19;5.10;99.90
44229;DHT22;29904;51.058;5.378;2022-12-07T17:22:45;5.10;99.90
44229;DHT22;29904;51.058;5.378;2022-12-07T17:25:11;5.10;99.90
44229;DHT22;29904;51.058;5.378;2022-12-07T17:27:37;5.00;99.90
44229;DHT22;29904;51.058;5.378;2022-12-07T17:30:05;5.00;99.90
44229;DHT22;29904;51.058;5.378;2022-12-07T17:32:31;4.90;99.90
44229;DHT22;29904;51.058;5.378;2022-12-07T17:34:59;5.00;99.90
44229;DHT22;29904;51.058;5.378;2022-12-07T17:37:25;4.90;99.90
44229;DHT22;29904;51.058;5.378;2022-12-07T17:39:54;4.90;99.90
44229;DHT22;29904;51.058;5.378;2022-12-07T17:42:25;5.00;99.90
44229;DHT22;29904;51.058;5.378;2022-12-07T17:45:07;5.00;99.90
44229;DHT22;29904;51.058;5.378;2022-12-07T17:47:34;5.00;99.90
44229;DHT22;29904;51.058;5.378;2022-12-07T17:50:00;5.10;99.90
44229;DHT22;29904;51.058;5.378;2022-12-07T17:52:26;5.10;99.90
44229;DHT22;29904;51.058;5.378;2022-12-07T17:55:12;5.10;99.90
44229;DHT22;29904;51.058;5.378;2022-12-07T17:57:38;5.20;99.90
44229;DHT22;29904;51.058;5.378;2022-12-07T18:00:05;5.20;99.90
44229;DHT22;29904;51.058;5.378;2022-12-07T18:02:32;5.20;99.90
44229;DHT22;29904;51.058;5.378;2022-12-07T18:04:58;5.20;99.90
44229;DHT22;29904;51.058;5.378;2022-12-07T18:07:24;5.30;99.90
44229;DHT22;29904;51.058;5.378;2022-12-07T18:09:50;5.30;99.90
44229;DHT22;29904;51.058;5.378;2022-12-07T18:12:15;5.30;99.90
44229;DHT22;29904;51.058;5.378;2022-12-07T18:14:41;5.30;99.90
44229;DHT22;29904;51.058;5.378;2022-12-07T18:17:07;5.40;99.90
44229;DHT22;29904;51.058;5.378;2022-12-07T18:19:33;5.40;99.90
44229;DHT22;29904;51.058;5.378;2022-12-07T18:22:02;5.50;99.90
44229;DHT22;29904;51.058;5.378;2022-12-07T18:24:30;5.50;99.90
44229;DHT22;29904;51.058;5.378;2022-12-07T18:26:56;5.50;99.90
44229;DHT22;29904;51.058;5.378;2022-12-07T18:29:22;5.50;99.90
44229;DHT22;29904;51.058;5.378;2022-12-07T18:31:49;5.50;99.90
44229;DHT22;29904;51.058;5.378;2022-12-07T18:34:18;5.50;99.90